Terminal Aerodrome Forecast
Issued by NWS

Home | Current Version | Previous Version | Graphics & Text | Print | Product List | Glossary On
Versions: 1 2 3 4 5 6 7 8 9 10 11 12 13 14
000
FTUS43 KGRB 212320
TAFCWA
TAF
KCWA 212320Z 2200/2224 35008KT P6SM SCT250
     FM220300 VRB03KT P6SM SCT250
     FM221700 26007KT P6SM SKC
      AMD LTD TO CLD VIS AND WIND 2203/2211=

USA.gov is the U.S. government's official web portal to all federal, state and local government web resources and services.